createdAt,value
2023-04-19T00:01:15.167Z,3.30
2023-04-19T00:06:18.054Z,3.20
2023-04-19T00:11:21.172Z,3.30
2023-04-19T00:16:24.262Z,3.30
2023-04-19T00:21:27.757Z,3.10
2023-04-19T00:26:30.697Z,4.30
2023-04-19T00:31:33.806Z,4.10
2023-04-19T00:36:36.715Z,4.70
2023-04-19T00:41:39.509Z,4.10
2023-04-19T00:46:43.647Z,3.50
2023-04-19T00:51:48.032Z,4.60
2023-04-19T00:56:51.682Z,4.40
2023-04-19T01:01:54.855Z,4.00
2023-04-19T01:06:57.832Z,4.00
2023-04-19T01:12:02.290Z,3.70
2023-04-19T01:17:05.991Z,5.30
2023-04-19T01:22:09.806Z,5.30
2023-04-19T01:27:14.249Z,5.00
2023-04-19T01:32:17.563Z,4.80
2023-04-19T01:37:20.478Z,4.60
2023-04-19T01:42:23.376Z,3.60
2023-04-19T01:47:26.284Z,4.30
2023-04-19T01:52:29.184Z,3.70
2023-04-19T01:57:32.104Z,3.90
2023-04-19T02:02:38.554Z,3.80
2023-04-19T02:07:41.689Z,4.30
2023-04-19T02:12:44.684Z,5.00
2023-04-19T02:17:47.554Z,5.20
2023-04-19T02:22:50.532Z,4.40
2023-04-19T02:27:54.021Z,4.70
2023-04-19T02:32:58.960Z,4.50
2023-04-19T02:38:03.941Z,4.10
2023-04-19T02:43:06.822Z,3.70
2023-04-19T02:48:09.766Z,5.10
2023-04-19T02:53:12.853Z,5.10
2023-04-19T02:58:15.935Z,4.40
2023-04-19T03:03:19.292Z,4.30
2023-04-19T03:08:22.260Z,4.00
2023-04-19T03:13:25.173Z,4.10
2023-04-19T03:18:27.976Z,4.30
2023-04-19T03:23:31.073Z,3.60
2023-04-19T03:28:33.979Z,4.00
2023-04-19T03:33:36.874Z,3.70
2023-04-19T03:38:41.001Z,3.60
2023-04-19T03:43:43.904Z,4.80
2023-04-19T03:48:47.021Z,4.00
2023-04-19T03:53:49.926Z,3.40
2023-04-19T03:58:53.028Z,3.90
2023-04-19T04:03:56.069Z,5.30
2023-04-19T04:08:59.048Z,4.30
2023-04-19T04:14:01.943Z,4.20
2023-04-19T04:19:04.844Z,5.20
2023-04-19T04:24:08.156Z,4.80
2023-04-19T04:29:11.112Z,5.70
2023-04-19T04:34:14.577Z,5.90
2023-04-19T04:39:18.422Z,4.40
2023-04-19T04:44:22.745Z,4.10
2023-04-19T04:49:25.770Z,4.60
2023-04-19T04:54:28.678Z,7.00
2023-04-19T04:59:31.581Z,7.10
2023-04-19T05:04:34.556Z,6.10
2023-04-19T05:09:37.489Z,6.20
2023-04-19T05:14:40.494Z,4.90
2023-04-19T05:19:43.397Z,5.50
2023-04-19T05:24:47.426Z,6.40
2023-04-19T05:29:51.683Z,11.80
2023-04-19T05:34:54.508Z,10.60
2023-04-19T05:39:58.440Z,6.80
2023-04-19T05:45:02.890Z,5.30
2023-04-19T05:50:08.217Z,5.50
2023-04-19T05:55:11.227Z,5.80
2023-04-19T06:00:16.206Z,5.90
2023-04-19T06:05:20.322Z,5.40
2023-04-19T06:10:24.070Z,4.60
2023-04-19T06:15:27.331Z,4.40
2023-04-19T06:20:30.431Z,4.50
2023-04-19T06:25:33.848Z,5.20
2023-04-19T06:30:36.779Z,5.00
2023-04-19T06:35:39.664Z,4.30
2023-04-19T06:40:42.665Z,4.30
2023-04-19T06:45:45.611Z,4.80
2023-04-19T06:50:48.481Z,5.20
2023-04-19T06:56:00.002Z,4.60
2023-04-19T07:01:06.076Z,4.70
2023-04-19T07:06:09.192Z,4.60
2023-04-19T07:11:12.175Z,5.30
2023-04-19T07:16:15.204Z,5.00
2023-04-19T07:21:18.180Z,5.90
2023-04-19T07:26:21.189Z,8.00
2023-04-19T07:31:27.370Z,9.10
2023-04-19T07:36:31.628Z,7.10
2023-04-19T07:41:35.921Z,5.90
2023-04-19T07:46:39.775Z,5.50
2023-04-19T07:51:42.773Z,5.20
2023-04-19T07:56:46.204Z,5.30
2023-04-19T08:01:49.916Z,4.60
2023-04-19T08:06:53.973Z,5.00
2023-04-19T08:11:58.092Z,4.70
2023-04-19T08:22:07.061Z,3.80
2023-04-19T08:27:11.301Z,4.80
2023-04-19T08:32:14.238Z,3.90
2023-04-19T08:37:17.230Z,4.10
2023-04-19T08:42:35.125Z,4.20
2023-04-19T08:47:56.342Z,4.70
2023-04-19T08:53:16.469Z,4.10
2023-04-19T08:58:36.567Z,4.10
2023-04-19T09:04:02.423Z,4.40
2023-04-19T09:14:28.316Z,5.00
2023-04-19T09:19:46.791Z,4.60
2023-04-19T09:30:01.532Z,5.30
2023-04-19T09:35:05.943Z,4.50
2023-04-19T09:40:28.239Z,4.70
2023-04-19T09:45:45.468Z,4.40
2023-04-19T09:51:05.855Z,4.90
2023-04-19T09:56:13.097Z,4.80
2023-04-19T10:01:19.309Z,4.10
2023-04-19T10:11:40.329Z,5.10
2023-04-19T10:16:43.868Z,4.50
2023-04-19T10:21:49.525Z,5.00
2023-04-19T10:27:09.219Z,4.80
2023-04-19T10:32:14.078Z,5.10
2023-04-19T10:37:17.162Z,5.20
2023-04-19T10:42:20.059Z,5.10
2023-04-19T10:47:52.082Z,5.50
2023-04-19T10:52:55.072Z,5.20
2023-04-19T10:58:07.833Z,5.80
2023-04-19T11:03:45.317Z,6.40
2023-04-19T11:08:48.527Z,5.80
2023-04-19T11:13:51.916Z,5.80
2023-04-19T11:18:56.639Z,6.30
2023-04-19T11:24:13.154Z,6.70
2023-04-19T11:29:16.213Z,6.50
2023-04-19T11:34:23.064Z,6.10
2023-04-19T11:39:26.229Z,6.30
2023-04-19T11:44:29.150Z,6.40
2023-04-19T11:49:34.133Z,7.20
2023-04-19T11:54:37.414Z,7.90
2023-04-19T12:00:08.718Z,6.90
2023-04-19T12:05:14.524Z,6.90
2023-04-19T12:10:17.556Z,6.00
2023-04-19T12:15:22.456Z,7.90
2023-04-19T12:20:35.380Z,7.50
2023-04-19T12:25:38.556Z,8.20
2023-04-19T12:30:42.399Z,10.70
2023-04-19T12:35:46.096Z,8.60
2023-04-19T12:40:49.004Z,7.80
2023-04-19T12:45:51.944Z,7.70
2023-04-19T12:50:55.318Z,7.90
2023-04-19T12:55:58.853Z,7.40
2023-04-19T13:01:01.780Z,8.90
2023-04-19T13:06:05.748Z,6.90
2023-04-19T13:11:08.883Z,7.20
2023-04-19T13:16:11.815Z,5.90
2023-04-19T13:21:15.100Z,7.70
2023-04-19T13:26:18.059Z,8.20
2023-04-19T13:31:20.988Z,9.50
2023-04-19T13:36:23.946Z,9.30
2023-04-19T13:41:26.834Z,8.60
2023-04-19T13:46:29.763Z,8.30
2023-04-19T13:51:46.516Z,7.30
2023-04-19T13:56:52.565Z,8.90
2023-04-19T14:01:56.308Z,9.90
2023-04-19T14:06:59.274Z,8.40
2023-04-19T14:12:02.685Z,7.80
2023-04-19T14:17:05.787Z,8.00
2023-04-19T14:22:08.695Z,7.20
2023-04-19T14:27:12.138Z,8.30
2023-04-19T14:37:23.294Z,7.60
2023-04-19T14:42:26.251Z,7.60
2023-04-19T14:47:29.191Z,7.50
2023-04-19T14:52:32.368Z,8.10
2023-04-19T14:57:35.268Z,9.10
2023-04-19T15:02:38.269Z,8.40
2023-04-19T15:07:41.894Z,8.30
2023-04-19T15:12:45.010Z,8.40
2023-04-19T15:17:47.823Z,7.60
2023-04-19T15:22:51.027Z,7.70
2023-04-19T15:27:53.925Z,7.70
2023-04-19T15:32:57.067Z,7.80
2023-04-19T15:38:00.044Z,8.10
2023-04-19T15:43:02.946Z,7.50
2023-04-19T15:48:06.311Z,7.20
2023-04-19T15:53:10.088Z,7.20
2023-04-19T15:58:12.882Z,7.80
2023-04-19T16:03:16.230Z,7.60
2023-04-19T16:08:19.920Z,7.60
2023-04-19T16:13:22.827Z,7.30
2023-04-19T16:18:25.949Z,9.00
2023-04-19T16:23:29.146Z,8.20
2023-04-19T16:28:32.067Z,8.90
2023-04-19T16:33:35.266Z,9.00
2023-04-19T16:38:38.074Z,9.80
2023-04-19T16:43:41.170Z,9.30
2023-04-19T16:48:44.179Z,9.60
2023-04-19T16:53:47.435Z,9.70
2023-04-19T16:58:51.086Z,9.30
2023-04-19T17:03:54.059Z,8.80
2023-04-19T17:08:57.027Z,7.40
2023-04-19T17:14:00.172Z,5.50
2023-04-19T17:19:03.039Z,4.80
2023-04-19T17:24:06.160Z,4.90
2023-04-19T17:29:09.176Z,5.00
2023-04-19T17:34:12.138Z,5.30
2023-04-19T17:39:15.643Z,6.40
2023-04-19T17:44:18.782Z,5.80
2023-04-19T17:49:22.133Z,6.10
2023-04-19T17:54:25.108Z,9.00
2023-04-19T17:59:28.422Z,9.80
2023-04-19T18:04:31.661Z,6.20
2023-04-19T18:09:34.745Z,6.70
2023-04-19T18:14:37.645Z,6.00
2023-04-19T18:19:40.757Z,5.80
2023-04-19T18:24:46.732Z,7.80
2023-04-19T18:29:53.045Z,6.90
2023-04-19T18:34:56.027Z,7.20
2023-04-19T18:39:59.454Z,6.90
2023-04-19T18:45:04.264Z,5.90
2023-04-19T18:50:08.873Z,7.10
2023-04-19T18:55:13.896Z,7.20
2023-04-19T19:00:17.431Z,9.90
2023-04-19T19:05:21.122Z,9.60
2023-04-19T19:15:29.903Z,9.60
2023-04-19T19:20:33.011Z,9.30
2023-04-19T19:25:35.914Z,10.00
2023-04-19T19:30:42.931Z,11.00
2023-04-19T19:35:46.073Z,13.30
2023-04-19T19:41:24.575Z,15.30
2023-04-19T19:46:13.884Z,15.80
2023-04-19T19:51:44.136Z,16.70
2023-04-19T19:56:53.859Z,15.50
2023-04-19T20:02:03.807Z,15.70
2023-04-19T20:07:32.937Z,15.20
2023-04-19T20:12:32.472Z,16.00
2023-04-19T20:17:35.805Z,17.90
2023-04-19T20:22:38.787Z,20.00
2023-04-19T20:27:41.701Z,21.70
2023-04-19T20:32:44.635Z,21.60
2023-04-19T20:37:47.541Z,21.00
2023-04-19T20:42:50.518Z,20.40
2023-04-19T20:47:54.436Z,19.90
2023-04-19T20:52:58.570Z,16.00
2023-04-19T20:58:02.719Z,13.70
2023-04-19T21:03:06.671Z,11.80
2023-04-19T21:08:09.740Z,12.50
2023-04-19T21:13:12.750Z,11.80
2023-04-19T21:18:15.755Z,9.40
2023-04-19T21:23:18.663Z,10.80
2023-04-19T21:28:22.734Z,10.80
2023-04-19T21:33:25.600Z,10.20
2023-04-19T21:38:28.500Z,10.80
2023-04-19T21:43:31.917Z,9.30
2023-04-19T21:48:34.926Z,8.20
2023-04-19T21:53:38.343Z,8.20
2023-04-19T21:58:41.247Z,7.50
2023-04-19T22:03:45.967Z,8.50
2023-04-19T22:08:49.920Z,7.40
2023-04-19T22:13:52.719Z,8.90
2023-04-19T22:18:56.240Z,10.20
2023-04-19T22:23:59.155Z,9.40
2023-04-19T22:29:02.265Z,9.80
2023-04-19T22:34:05.254Z,9.60
2023-04-19T22:39:09.284Z,8.50
2023-04-19T22:44:12.206Z,8.60
2023-04-19T22:49:15.514Z,8.80
2023-04-19T22:54:18.610Z,7.90
2023-04-19T22:59:21.617Z,9.20
2023-04-19T23:04:24.606Z,9.50
2023-04-19T23:09:29.968Z,9.50
2023-04-19T23:14:33.106Z,9.90
2023-04-19T23:19:37.867Z,10.00
2023-04-19T23:24:41.267Z,9.80
2023-04-19T23:29:44.115Z,9.80
2023-04-19T23:34:47.067Z,9.40
2023-04-19T23:39:49.873Z,9.70
2023-04-19T23:44:54.615Z,9.90
2023-04-19T23:49:57.524Z,10.50
2023-04-19T23:55:00.729Z,9.80
